createdAt,value
2023-03-04T00:00:11.929Z,99.993896
2023-03-04T00:01:20.620Z,99.993896
2023-03-04T00:02:30.324Z,99.993896
2023-03-04T00:03:39.216Z,99.993896
2023-03-04T00:04:48.870Z,99.993896
2023-03-04T00:05:57.568Z,99.993896
2023-03-04T00:07:07.211Z,99.993896
2023-03-04T00:08:17.022Z,99.993896
2023-03-04T00:09:26.663Z,99.993896
2023-03-04T00:10:34.334Z,99.993896
2023-03-04T00:11:43.986Z,99.993896
2023-03-04T00:12:52.696Z,99.993896
2023-03-04T00:14:01.347Z,99.993896
2023-03-04T00:15:09.991Z,99.993896
2023-03-04T00:16:18.707Z,99.993896
2023-03-04T00:17:28.302Z,99.993896
2023-03-04T00:18:36.981Z,99.993896
2023-03-04T00:19:44.633Z,99.993896
2023-03-04T00:20:54.287Z,99.993896
2023-03-04T00:22:02.988Z,99.993896
2023-03-04T00:23:11.679Z,99.993896
2023-03-04T00:24:20.386Z,99.993896
2023-03-04T00:25:29.022Z,99.993896
2023-03-04T00:26:38.727Z,99.993896
2023-03-04T00:27:47.375Z,99.993896
2023-03-04T00:28:56.090Z,99.993896
2023-03-04T00:30:05.766Z,99.993896
2023-03-04T00:31:14.653Z,99.993896
2023-03-04T00:32:24.146Z,99.993896
2023-03-04T00:33:33.058Z,99.993896
2023-03-04T00:34:42.706Z,99.993896
2023-03-04T00:35:52.367Z,99.993896
2023-03-04T00:37:02.050Z,99.993896
2023-03-04T00:38:09.739Z,99.993896
2023-03-04T00:39:20.431Z,99.993896
2023-03-04T00:40:29.145Z,99.993896
2023-03-04T00:41:37.766Z,99.993896
2023-03-04T00:42:47.427Z,99.993896
2023-03-04T00:43:57.110Z,99.993896
2023-03-04T00:45:06.773Z,99.993896
2023-03-04T00:46:16.511Z,99.993896
2023-03-04T00:47:25.086Z,99.993896
2023-03-04T00:48:34.808Z,99.993896
2023-03-04T00:49:44.459Z,99.993896
2023-03-04T00:50:54.118Z,99.993896
2023-03-04T00:52:02.794Z,99.993896
2023-03-04T00:53:12.492Z,99.993896
2023-03-04T00:54:22.169Z,99.993896
2023-03-04T00:55:29.866Z,99.993896
2023-03-04T00:56:38.544Z,99.993896
2023-03-04T00:57:48.186Z,99.993896
2023-03-04T00:58:56.907Z,99.993896
2023-03-04T01:00:06.583Z,99.993896
2023-03-04T01:01:16.299Z,99.993896
2023-03-04T01:02:24.963Z,99.993896
2023-03-04T01:03:34.678Z,99.993896
2023-03-04T01:04:43.354Z,99.993896
2023-03-04T01:05:53.081Z,99.993896
2023-03-04T01:07:02.748Z,99.993896
2023-03-04T01:08:11.421Z,99.993896
2023-03-04T01:09:20.136Z,99.993896
2023-03-04T01:10:29.798Z,99.993896
2023-03-04T01:11:38.506Z,99.993896
2023-03-04T01:12:48.183Z,99.993896
2023-03-04T01:13:57.849Z,99.993896
2023-03-04T01:15:05.604Z,99.993896
2023-03-04T01:16:15.297Z,99.993896
2023-03-04T01:17:24.933Z,99.993896
2023-03-04T01:18:33.617Z,99.993896
2023-03-04T01:19:42.274Z,99.993896
2023-03-04T01:20:50.915Z,99.993896
2023-03-04T01:22:00.615Z,99.993896
2023-03-04T01:23:09.286Z,99.993896
2023-03-04T01:24:18.978Z,99.993896
2023-03-04T01:25:27.656Z,99.993896
2023-03-04T01:26:36.352Z,99.993896
2023-03-04T01:27:45.039Z,99.993896
2023-03-04T01:28:54.844Z,99.993896
2023-03-04T01:30:04.454Z,99.993896
2023-03-04T01:31:14.171Z,99.993896
2023-03-04T01:32:21.878Z,99.993896
2023-03-04T01:33:31.570Z,99.993896
2023-03-04T01:34:41.212Z,99.993896
2023-03-04T01:35:49.928Z,99.993896
2023-03-04T01:36:58.553Z,99.993896
2023-03-04T01:38:07.208Z,99.993896
2023-03-04T01:39:16.891Z,99.993896
2023-03-04T01:40:26.563Z,99.993896
2023-03-04T01:41:36.222Z,99.993896
2023-03-04T01:42:44.874Z,99.993896
2023-03-04T01:43:53.539Z,99.993896
2023-03-04T01:45:02.281Z,99.993896
2023-03-04T01:46:11.930Z,99.993896
2023-03-04T01:47:21.564Z,99.993896
2023-03-04T01:48:30.313Z,99.993896
2023-03-04T01:49:39.990Z,99.993896
2023-03-04T01:50:49.686Z,99.993896
2023-03-04T01:51:59.354Z,99.993896
2023-03-04T01:53:09.027Z,99.993896
2023-03-04T01:54:18.735Z,99.993896
2023-03-04T01:55:28.418Z,99.993896
2023-03-04T01:56:38.098Z,99.993896
2023-03-04T01:57:47.771Z,99.993896
2023-03-04T01:58:55.489Z,99.993896
2023-03-04T02:00:05.235Z,99.993896
2023-03-04T02:01:14.877Z,99.993896
2023-03-04T02:02:23.533Z,99.993896
2023-03-04T02:03:32.236Z,99.993896
2023-03-04T02:04:40.913Z,99.993896
2023-03-04T02:05:50.596Z,99.993896
2023-03-04T02:06:58.262Z,99.993896
2023-03-04T02:08:06.945Z,99.993896
2023-03-04T02:09:16.631Z,99.993896
2023-03-04T02:10:26.289Z,99.993896
2023-03-04T02:11:34.970Z,99.993896
2023-03-04T02:12:44.637Z,99.993896
2023-03-04T02:13:53.295Z,99.993896
2023-03-04T02:15:02.979Z,99.993896
2023-03-04T02:16:10.680Z,99.993896
2023-03-04T02:17:18.300Z,99.993896
2023-03-04T02:18:28.018Z,99.993896
2023-03-04T02:19:36.683Z,99.993896
2023-03-04T02:20:46.345Z,99.993896
2023-03-04T02:21:55.056Z,99.993896
2023-03-04T02:23:04.732Z,99.993896
2023-03-04T02:24:14.413Z,99.993896
2023-03-04T02:25:23.108Z,99.993896
2023-03-04T02:26:31.774Z,99.993896
2023-03-04T02:27:41.421Z,99.993896
2023-03-04T02:28:50.140Z,99.993896
2023-03-04T02:29:59.949Z,99.993896
2023-03-04T02:31:09.664Z,99.993896
2023-03-04T02:32:18.328Z,99.993896
2023-03-04T02:33:27.933Z,99.993896
2023-03-04T02:34:35.612Z,99.993896
2023-03-04T02:35:43.346Z,99.993896
2023-03-04T02:36:51.944Z,99.993896
2023-03-04T02:38:00.601Z,99.993896
2023-03-04T02:39:09.295Z,99.993896
2023-03-04T02:40:18.967Z,99.993896
2023-03-04T02:41:27.638Z,99.993896
2023-03-04T02:42:37.269Z,99.993896
2023-03-04T02:43:45.928Z,99.993896
2023-03-04T02:44:54.604Z,99.993896
2023-03-04T02:46:03.269Z,99.993896
2023-03-04T02:47:11.914Z,99.993896
2023-03-04T02:48:21.634Z,99.993896
2023-03-04T02:49:31.300Z,99.993896
2023-03-04T02:50:38.976Z,99.993896
2023-03-04T02:51:48.747Z,99.993896
2023-03-04T02:52:58.453Z,99.993896
2023-03-04T02:54:06.136Z,99.993896
2023-03-04T02:55:14.844Z,99.993896
2023-03-04T02:56:23.529Z,99.993896
2023-03-04T02:57:33.189Z,99.993896
2023-03-04T02:58:42.868Z,99.993896
2023-03-04T02:59:52.570Z,99.993896
2023-03-04T03:01:02.421Z,99.993896
2023-03-04T03:02:10.190Z,99.993896
2023-03-04T03:03:18.704Z,99.993896
2023-03-04T03:04:28.443Z,99.993896
2023-03-04T03:05:38.092Z,99.993896
2023-03-04T03:06:47.749Z,99.993896
2023-03-04T03:07:57.425Z,99.993896
2023-03-04T03:09:07.103Z,99.993896
2023-03-04T03:10:16.773Z,99.993896
2023-03-04T03:11:26.160Z,99.993896
2023-03-04T03:12:32.080Z,99.993896
2023-03-04T03:13:41.751Z,99.993896
2023-03-04T03:14:51.484Z,99.993896
2023-03-04T03:16:01.227Z,99.993896
2023-03-04T03:17:09.816Z,99.993896
2023-03-04T03:18:18.493Z,99.993896
2023-03-04T03:19:28.278Z,99.993896
2023-03-04T03:20:36.044Z,99.993896
2023-03-04T03:21:44.662Z,99.993896
2023-03-04T03:22:54.336Z,99.993896
2023-03-04T03:24:02.978Z,99.993896
2023-03-04T03:25:11.658Z,99.993896
2023-03-04T03:26:20.345Z,99.993896
2023-03-04T03:27:30.008Z,99.993896
2023-03-04T03:28:39.729Z,99.993896
2023-03-04T03:29:47.420Z,99.993896
2023-03-04T03:30:57.077Z,99.993896
2023-03-04T03:32:06.782Z,99.993896
2023-03-04T03:33:15.418Z,99.993896
2023-03-04T03:34:25.091Z,99.993896
2023-03-04T03:35:34.800Z,99.993896
2023-03-04T03:36:43.504Z,99.993896
2023-03-04T03:37:53.101Z,99.993896
2023-03-04T03:39:00.823Z,99.993896
2023-03-04T03:40:10.544Z,99.993896
2023-03-04T03:41:19.207Z,99.993896
2023-03-04T03:42:28.894Z,99.993896
2023-03-04T03:43:37.548Z,99.993896
2023-03-04T03:44:47.248Z,99.993896
2023-03-04T03:45:55.033Z,99.993896
2023-03-04T03:47:03.594Z,99.993896
2023-03-04T03:48:13.258Z,99.993896
2023-03-04T03:49:21.962Z,99.993896
2023-03-04T03:50:31.688Z,99.993896
2023-03-04T03:51:39.361Z,99.993896
2023-03-04T03:52:48.026Z,99.993896
2023-03-04T03:53:57.685Z,99.993896
2023-03-04T03:55:05.375Z,99.993896
2023-03-04T03:56:14.039Z,99.993896
2023-03-04T03:57:23.721Z,99.993896
2023-03-04T03:58:32.393Z,99.993896
2023-03-04T03:59:42.056Z,99.993896
2023-03-04T04:00:50.766Z,99.993896
2023-03-04T04:02:00.572Z,99.993896
2023-03-04T04:03:10.156Z,99.993896
2023-03-04T04:04:18.816Z,99.993896
2023-03-04T04:05:26.484Z,99.993896
2023-03-04T04:06:36.215Z,99.993896
2023-03-04T04:07:45.918Z,99.993896
2023-03-04T04:08:55.618Z,99.993896
2023-03-04T04:10:05.258Z,99.993896
2023-03-04T04:11:14.928Z,99.993896
2023-03-04T04:12:24.601Z,99.993896
2023-03-04T04:13:33.259Z,99.993896
2023-03-04T04:14:42.908Z,99.993896
2023-03-04T04:15:52.612Z,99.993896
2023-03-04T04:17:01.311Z,99.993896
2023-03-04T04:18:10.034Z,99.993896
2023-03-04T04:19:19.693Z,99.993896
2023-03-04T04:20:29.374Z,99.993896
2023-03-04T04:21:39.049Z,99.993896
2023-03-04T04:22:48.711Z,99.993896
2023-03-04T04:23:56.406Z,99.993896
2023-03-04T04:25:06.091Z,99.993896
2023-03-04T04:26:15.759Z,99.993896
2023-03-04T04:27:24.400Z,99.993896
2023-03-04T04:28:33.066Z,99.993896
2023-03-04T04:29:41.732Z,99.993896
2023-03-04T04:30:51.510Z,99.993896
2023-03-04T04:32:00.272Z,99.993896
2023-03-04T04:33:07.842Z,99.993896
2023-03-04T04:34:17.617Z,99.993896
2023-03-04T04:35:27.347Z,99.993896
2023-03-04T04:36:35.979Z,99.993896
2023-03-04T04:37:45.718Z,99.993896
2023-03-04T04:38:54.376Z,99.993896
2023-03-04T04:40:04.070Z,99.993896
2023-03-04T04:41:11.821Z,99.993896
2023-03-04T04:42:19.454Z,99.993896
2023-03-04T04:43:29.150Z,99.993896
2023-03-04T04:44:37.804Z,99.993896
2023-03-04T04:45:47.507Z,99.993896
2023-03-04T04:46:56.191Z,99.993896
2023-03-04T04:48:04.823Z,99.993896
2023-03-04T04:49:14.490Z,99.993896
2023-03-04T04:50:22.196Z,99.993896
2023-03-04T04:51:30.915Z,99.993896
2023-03-04T04:52:40.584Z,99.993896
2023-03-04T04:53:50.248Z,99.993896
2023-03-04T04:54:58.912Z,99.993896
2023-03-04T04:56:08.632Z,99.993896
2023-03-04T04:57:17.341Z,99.993896
2023-03-04T04:58:27.009Z,99.993896
2023-03-04T04:59:35.688Z,99.993896
2023-03-04T05:00:44.335Z,99.993896
2023-03-04T05:01:53.104Z,99.993896
2023-03-04T05:03:01.778Z,99.993896
2023-03-04T05:04:09.421Z,99.993896
2023-03-04T05:05:18.085Z,99.993896
2023-03-04T05:06:26.773Z,99.993896
2023-03-04T05:07:36.424Z,99.993896
2023-03-04T05:08:46.086Z,99.993896
2023-03-04T05:09:53.747Z,99.993896
2023-03-04T05:11:03.442Z,99.993896
2023-03-04T05:12:12.119Z,99.993896
2023-03-04T05:13:21.809Z,99.993896
2023-03-04T05:14:31.447Z,99.993896
2023-03-04T05:15:40.165Z,99.993896
2023-03-04T05:16:49.812Z,99.993896
2023-03-04T05:17:59.486Z,99.993896
2023-03-04T05:19:08.156Z,99.993896
2023-03-04T05:20:17.848Z,99.993896
2023-03-04T05:21:26.524Z,99.993896
2023-03-04T05:22:35.298Z,99.993896
2023-03-04T05:23:43.955Z,99.993896
2023-03-04T05:24:52.643Z,99.993896
2023-03-04T05:26:02.336Z,99.993896
2023-03-04T05:27:09.006Z,99.993896
2023-03-04T05:28:17.688Z,99.993896
2023-03-04T05:29:27.380Z,99.993896
2023-03-04T05:30:37.011Z,99.993896
2023-03-04T05:31:44.705Z,99.993896
2023-03-04T05:32:52.336Z,99.993896
2023-03-04T05:34:02.006Z,99.993896
2023-03-04T05:35:10.741Z,99.993896
2023-03-04T05:36:18.437Z,99.993896
2023-03-04T05:37:28.105Z,99.993896
2023-03-04T05:38:37.755Z,99.993896
2023-03-04T05:39:46.418Z,99.993896
2023-03-04T05:40:55.091Z,99.993896
2023-03-04T05:42:03.788Z,99.993896
2023-03-04T05:43:13.447Z,99.993896
2023-03-04T05:44:22.096Z,99.993896
2023-03-04T05:45:30.784Z,99.993896
2023-03-04T05:46:40.547Z,99.993896
2023-03-04T05:47:49.112Z,99.993896
2023-03-04T05:48:57.787Z,99.993896
2023-03-04T05:50:07.461Z,99.993896
2023-03-04T05:51:15.154Z,99.993896
2023-03-04T05:52:24.862Z,99.993896
2023-03-04T05:53:33.525Z,99.993896
2023-03-04T05:54:41.218Z,99.993896
2023-03-04T05:55:50.898Z,99.993896
2023-03-04T05:56:59.562Z,99.993896
2023-03-04T05:58:08.239Z,99.993896
2023-03-04T05:59:16.901Z,99.993896
2023-03-04T06:00:26.602Z,99.993896
2023-03-04T06:01:36.488Z,99.993896
2023-03-04T06:02:46.253Z,99.993896
2023-03-04T06:03:55.820Z,99.993896
2023-03-04T06:05:05.571Z,99.993896
2023-03-04T06:06:14.235Z,99.993896
2023-03-04T06:07:23.087Z,99.993896
2023-03-04T06:08:31.740Z,99.993896
2023-03-04T06:09:40.414Z,99.993896
2023-03-04T06:10:51.108Z,99.993896
2023-03-04T06:12:00.806Z,99.993896
2023-03-04T06:13:09.505Z,99.993896
2023-03-04T06:14:18.222Z,99.993896
2023-03-04T06:15:26.908Z,99.993896
2023-03-04T06:16:35.560Z,99.993896
2023-03-04T06:17:45.314Z,99.993896
2023-03-04T06:18:54.939Z,99.993896
2023-03-04T06:20:03.613Z,99.993896
2023-03-04T06:21:13.286Z,99.993896
2023-03-04T06:22:22.040Z,99.993896
2023-03-04T06:23:30.811Z,99.993896
2023-03-04T06:24:38.465Z,99.993896
2023-03-04T06:25:48.176Z,99.993896
2023-03-04T06:26:57.994Z,99.993896
2023-03-04T06:28:07.602Z,99.993896
2023-03-04T06:29:16.261Z,99.993896
2023-03-04T06:30:25.942Z,99.993896
2023-03-04T06:31:35.669Z,99.993896
2023-03-04T06:32:45.388Z,99.993896
2023-03-04T06:33:54.075Z,99.993896
2023-03-04T06:35:02.759Z,99.993896
2023-03-04T06:36:12.412Z,99.993896
2023-03-04T06:37:20.162Z,99.993896
2023-03-04T06:38:29.829Z,99.993896
2023-03-04T06:39:39.533Z,99.993896
2023-03-04T06:40:49.221Z,99.993896
2023-03-04T06:41:58.897Z,99.993896
2023-03-04T06:43:07.558Z,99.993896
2023-03-04T06:44:17.256Z,99.993896
2023-03-04T06:45:26.934Z,99.993896
2023-03-04T06:46:35.761Z,99.993896
2023-03-04T06:47:44.405Z,99.993896
2023-03-04T06:48:54.096Z,99.993896
2023-03-04T06:50:02.786Z,99.993896
2023-03-04T06:51:12.531Z,99.993896
2023-03-04T06:52:21.217Z,99.993896
2023-03-04T06:53:29.864Z,99.993896
2023-03-04T06:54:39.555Z,99.993896
2023-03-04T06:55:47.213Z,99.993896
2023-03-04T06:56:56.906Z,99.993896
2023-03-04T06:58:06.589Z,99.993896
2023-03-04T06:59:15.239Z,99.993896
2023-03-04T07:00:24.921Z,99.993896
2023-03-04T07:01:34.585Z,99.993896
2023-03-04T07:02:43.278Z,99.993896
2023-03-04T07:03:53.056Z,99.993896
2023-03-04T07:05:01.683Z,99.993896
2023-03-04T07:06:10.392Z,99.993896
2023-03-04T07:07:20.018Z,99.993896
2023-03-04T07:08:29.718Z,99.993896
2023-03-04T07:09:38.371Z,99.993896
2023-03-04T07:10:47.031Z,99.993896
2023-03-04T07:11:55.676Z,99.993896
2023-03-04T07:13:05.357Z,99.993896
2023-03-04T07:14:14.016Z,99.993896
2023-03-04T07:15:22.703Z,99.993896
2023-03-04T07:16:32.423Z,99.993896
2023-03-04T07:17:41.039Z,99.993896
2023-03-04T07:18:49.759Z,99.993896
2023-03-04T07:19:58.419Z,99.993896
2023-03-04T07:21:07.105Z,99.993896
2023-03-04T07:22:16.811Z,99.993896
2023-03-04T07:23:26.523Z,99.993896
2023-03-04T07:24:35.181Z,99.993896
2023-03-04T07:25:44.863Z,99.993896
2023-03-04T07:26:53.519Z,99.993896
2023-03-04T07:28:02.211Z,99.993896
2023-03-04T07:29:10.855Z,99.993896
2023-03-04T07:30:19.557Z,99.993896
2023-03-04T07:31:29.250Z,99.993896
2023-03-04T07:32:36.999Z,99.993896
2023-03-04T07:33:45.712Z,99.993896
2023-03-04T07:34:55.379Z,99.346924
2023-03-04T07:36:04.313Z,99.407959
2023-03-04T07:39:59.796Z,98.797607
2023-03-04T07:41:09.438Z,98.065186
2023-03-04T07:58:19.113Z,93.634033
2023-03-04T07:59:27.836Z,92.553711
2023-03-04T08:00:36.562Z,91.864014
2023-03-04T08:01:46.209Z,91.760254
2023-03-04T08:02:55.995Z,92.071533
2023-03-04T08:04:04.801Z,91.723633
2023-03-04T08:05:12.412Z,90.893555
2023-03-04T08:06:22.087Z,90.686035
2023-03-04T08:07:30.785Z,90.332031
2023-03-04T08:08:40.483Z,89.855957
2023-03-04T08:09:49.243Z,90.203857
2023-03-04T08:10:57.959Z,91.033936
2023-03-04T08:12:07.641Z,91.448975
2023-03-04T08:13:16.328Z,90.893555
2023-03-04T08:14:26.066Z,90.374756
2023-03-04T08:15:35.765Z,90.686035
2023-03-04T08:16:44.442Z,90.997314
2023-03-04T08:17:52.107Z,91.05835
2023-03-04T08:19:00.830Z,90.600586
2023-03-04T08:20:09.527Z,89.459229
2023-03-04T08:21:19.268Z,88.317871
2023-03-04T08:22:27.946Z,88.17749
2023-03-04T08:23:36.639Z,87.927246
2023-03-04T08:24:46.333Z,86.578369
2023-03-04T08:25:55.030Z,86.993408
2023-03-04T08:27:03.717Z,86.645508
2023-03-04T08:28:12.406Z,85.36377
2023-03-04T08:29:21.171Z,85.05249
2023-03-04T08:30:29.866Z,84.741211
2023-03-04T08:31:38.695Z,83.978271
2023-03-04T08:32:48.315Z,84.014893
2023-03-04T08:33:55.918Z,84.326172
2023-03-04T08:35:04.602Z,83.911133
2023-03-04T08:36:14.272Z,83.605957
2023-03-04T08:37:22.965Z,84.222412
2023-03-04T08:38:32.685Z,83.953857
2023-03-04T08:39:41.401Z,84.680176
2023-03-04T08:40:50.062Z,84.057617
2023-03-04T08:41:59.738Z,83.709717
2023-03-04T08:43:08.414Z,83.911133
2023-03-04T08:44:16.152Z,83.398438
2023-03-04T08:45:25.846Z,83.355713
2023-03-04T08:46:34.550Z,82.983398
2023-03-04T08:47:44.217Z,82.983398
2023-03-04T08:48:52.902Z,83.294678
2023-03-04T08:50:02.587Z,82.8125
2023-03-04T08:51:12.286Z,83.709717
2023-03-04T08:52:19.972Z,83.190918
2023-03-04T08:53:28.674Z,82.843018
2023-03-04T08:54:38.517Z,82.659912
2023-03-04T08:55:47.159Z,81.390381
2023-03-04T08:56:56.851Z,82.427979
2023-03-04T08:58:05.632Z,81.976318
2023-03-04T08:59:14.317Z,81.390381
2023-03-04T09:00:24.083Z,82.427979
2023-03-04T09:01:32.859Z,82.183838
2023-03-04T09:02:42.589Z,80.944824
2023-03-04T09:03:52.406Z,80.737305
2023-03-04T09:05:02.003Z,80.560303
2023-03-04T09:06:10.694Z,79.248047
2023-03-04T09:07:20.414Z,78.417969
2023-03-04T09:08:30.136Z,78.076172
2023-03-04T09:09:39.845Z,77.728271
2023-03-04T09:10:48.563Z,76.971436
2023-03-04T09:11:57.265Z,76.11084
2023-03-04T09:13:06.953Z,75.390625
2023-03-04T09:14:15.613Z,74.42627
2023-03-04T09:15:24.354Z,74.42627
2023-03-04T09:16:34.055Z,74.255371
2023-03-04T09:17:43.758Z,74.328613
2023-03-04T09:18:53.490Z,74.053955
2023-03-04T09:20:04.464Z,75.048828
2023-03-04T09:21:12.928Z,75.457764
2023-03-04T09:22:22.627Z,75.598145
2023-03-04T09:23:31.284Z,76.940918
2023-03-04T09:24:39.995Z,76.184082
2023-03-04T09:25:48.660Z,75.085449
2023-03-04T09:26:57.332Z,75.427246
2023-03-04T09:28:19.757Z,74.56665
2023-03-04T09:29:28.374Z,73.809814
2023-03-04T09:30:36.047Z,73.260498
2023-03-04T09:31:45.769Z,72.271729
2023-03-04T09:32:54.408Z,70.52002
2023-03-04T09:34:04.156Z,70.861816
2023-03-04T09:35:13.880Z,71.411133
2023-03-04T09:36:23.558Z,72.473145
2023-03-04T09:37:33.238Z,73.022461
2023-03-04T09:38:41.916Z,73.913574
2023-03-04T09:39:50.653Z,72.576904
2023-03-04T09:41:00.355Z,72.607422
2023-03-04T09:42:09.052Z,72.711182
2023-03-04T09:43:17.739Z,72.198486
2023-03-04T09:44:26.439Z,71.990967
2023-03-04T09:45:36.122Z,71.374512
2023-03-04T09:46:45.942Z,71.820068
2023-03-04T09:47:54.550Z,72.955322
2023-03-04T09:49:02.169Z,72.88208
2023-03-04T09:50:12.881Z,71.820068
2023-03-04T09:51:22.570Z,70.965576
2023-03-04T09:52:32.270Z,70.935059
2023-03-04T09:53:42.068Z,69.903564
2023-03-04T09:54:51.767Z,69.317627
2023-03-04T09:56:01.447Z,70.037842
2023-03-04T09:57:09.109Z,70.349121
2023-03-04T09:58:16.761Z,70.214844
2023-03-04T09:59:26.454Z,68.847656
2023-03-04T10:00:35.190Z,68.371582
2023-03-04T10:01:43.816Z,67.034912
2023-03-04T10:02:52.534Z,66.253662
2023-03-04T10:04:01.233Z,65.948486
2023-03-04T10:05:10.936Z,65.814209
2023-03-04T10:06:19.673Z,66.369629
2023-03-04T10:07:27.432Z,63.604736
2023-03-04T10:08:37.135Z,63.427734
2023-03-04T10:09:44.753Z,64.556885
2023-03-04T10:10:53.482Z,63.635254
2023-03-04T10:12:03.097Z,64.141846
2023-03-04T10:13:12.842Z,64.349365
2023-03-04T10:14:23.567Z,63.970947
2023-03-04T10:15:32.290Z,64.306641
2023-03-04T10:16:41.043Z,64.642334
2023-03-04T10:17:50.651Z,66.040039
2023-03-04T10:18:59.316Z,65.863037
2023-03-04T10:20:08.028Z,67.303467
2023-03-04T10:21:17.746Z,67.376709
2023-03-04T10:22:26.481Z,66.418457
2023-03-04T10:23:36.126Z,66.729736
2023-03-04T10:24:45.786Z,66.973877
2023-03-04T10:25:53.530Z,65.783691
2023-03-04T10:27:02.252Z,64.935303
2023-03-04T10:28:10.932Z,63.574219
2023-03-04T10:29:20.617Z,63.470459
2023-03-04T10:30:29.315Z,62.957764
2023-03-04T10:31:39.041Z,63.562012
2023-03-04T10:32:47.763Z,64.996338
2023-03-04T10:33:56.463Z,64.923096
2023-03-04T10:35:06.164Z,64.788818
2023-03-04T10:36:14.894Z,65.155029
2023-03-04T10:37:22.585Z,66.760254
2023-03-04T10:38:32.285Z,67.034912
2023-03-04T10:39:41.934Z,66.833496
2023-03-04T10:40:50.640Z,66.625977
2023-03-04T10:41:59.387Z,66.418457
2023-03-04T10:43:08.022Z,67.242432
2023-03-04T10:44:17.690Z,67.547607
2023-03-04T10:45:25.471Z,67.138672
2023-03-04T10:46:34.087Z,67.346191
2023-03-04T10:47:43.774Z,67.315674
2023-03-04T10:48:59.020Z,66.766357
2023-03-04T10:50:08.692Z,66.357422
2023-03-04T10:51:17.416Z,67.016602
2023-03-04T10:52:27.993Z,65.582275
2023-03-04T10:53:37.738Z,65.612793
2023-03-04T10:54:47.424Z,65.887451
2023-03-04T10:55:56.129Z,65.344238
2023-03-04T10:57:05.821Z,64.434814
2023-03-04T10:58:15.481Z,63.17749
2023-03-04T10:59:24.171Z,62.225342
2023-03-04T11:00:32.850Z,62.225342
2023-03-04T11:01:41.541Z,61.688232
2023-03-04T11:02:51.236Z,60.565186
2023-03-04T11:03:58.927Z,60.534668
2023-03-04T11:05:06.587Z,59.820557
2023-03-04T11:06:16.288Z,59.924316
2023-03-04T11:07:25.989Z,60.534668
2023-03-04T11:38:16.245Z,62.82959
2023-03-04T11:39:24.914Z,62.316895
2023-03-04T11:40:34.588Z,61.981201
2023-03-04T11:41:43.307Z,60.931396
2023-03-04T11:42:51.988Z,61.004639
2023-03-04T11:44:00.690Z,60.797119
2023-03-04T11:45:21.464Z,60.186768
2023-03-04T11:46:21.082Z,60.797119
2023-03-04T11:47:28.811Z,60.754395
2023-03-04T11:48:36.513Z,61.59668
2023-03-04T11:49:46.211Z,61.981201
2023-03-04T11:50:54.869Z,61.364746
2023-03-04T11:52:03.596Z,61.364746
2023-03-04T11:53:12.269Z,61.877441
2023-03-04T11:54:21.984Z,61.669922
2023-03-04T11:55:31.670Z,62.182617
2023-03-04T11:56:39.330Z,61.029053
2023-03-04T11:57:47.088Z,61.437988
2023-03-04T11:58:56.777Z,61.669922
2023-03-04T12:00:05.481Z,61.950684
2023-03-04T12:01:15.134Z,61.029053
2023-03-04T12:02:23.836Z,61.309814
2023-03-04T12:03:32.529Z,61.248779
2023-03-04T12:04:42.201Z,60.60791
2023-03-04T12:05:51.437Z,60.070801
2023-03-04T12:06:59.141Z,58.81958
2023-03-04T12:08:08.857Z,58.233643
2023-03-04T12:09:17.546Z,59.356689
2023-03-04T12:10:27.243Z,58.642578
2023-03-04T12:11:37.909Z,58.691406
2023-03-04T12:12:46.599Z,58.410645
2023-03-04T12:13:55.272Z,58.282471
2023-03-04T12:15:03.973Z,57.568359
2023-03-04T12:16:12.672Z,57.440186
2023-03-04T12:17:22.365Z,57.312012
2023-03-04T12:18:31.057Z,56.292725
2023-03-04T12:19:39.704Z,56.292725
2023-03-04T12:20:49.376Z,56.292725
2023-03-04T12:21:58.061Z,55.786133
2023-03-04T12:23:07.799Z,55.584717
2023-03-04T12:24:16.473Z,55.633545
2023-03-04T12:25:24.150Z,54.589844
2023-03-04T12:26:33.893Z,55.12085
2023-03-04T12:27:43.557Z,55.505371
2023-03-04T12:28:53.246Z,55.303955
2023-03-04T12:30:01.921Z,56.243896
2023-03-04T12:31:10.688Z,55.859375
2023-03-04T12:32:21.322Z,55.603027
2023-03-04T12:33:30.002Z,54.89502
2023-03-04T12:34:38.680Z,54.718018
2023-03-04T12:35:48.379Z,55.761719
2023-03-04T12:36:57.037Z,55.859375
2023-03-04T12:38:05.720Z,57.287598
2023-03-04T12:39:16.080Z,55.810547
2023-03-04T12:40:25.141Z,55.426025
2023-03-04T12:41:34.830Z,55.303955
2023-03-04T12:42:43.675Z,54.589844
2023-03-04T12:43:53.321Z,54.156494
2023-03-04T12:45:03.035Z,54.180908
2023-03-04T12:46:12.778Z,55.12085
2023-03-04T12:47:22.403Z,55.401611
2023-03-04T12:48:31.123Z,54.998779
2023-03-04T12:49:39.791Z,54.919434
2023-03-04T12:50:49.484Z,55.810547
2023-03-04T12:51:58.156Z,55.963135
2023-03-04T12:53:06.868Z,55.480957
2023-03-04T12:54:14.547Z,56.164551
2023-03-04T12:55:22.213Z,55.633545
2023-03-04T12:56:31.914Z,56.213379
2023-03-04T12:57:41.619Z,54.589844
2023-03-04T12:58:51.321Z,54.56543
2023-03-04T13:00:01.118Z,54.614258
2023-03-04T13:01:09.786Z,53.723145
2023-03-04T13:02:19.484Z,55.12085
2023-03-04T13:03:27.297Z,54.638672
2023-03-04T13:04:34.832Z,53.80249
2023-03-04T13:05:44.532Z,53.118896
2023-03-04T13:06:53.470Z,53.955078
2023-03-04T13:08:01.929Z,53.625488
2023-03-04T13:09:10.622Z,54.205322
2023-03-04T13:10:19.298Z,55.633545
2023-03-04T13:11:28.974Z,57.086182
2023-03-04T13:12:36.666Z,56.884766
2023-03-04T13:13:45.404Z,57.623291
2023-03-04T13:14:55.092Z,57.830811
2023-03-04T13:16:04.783Z,58.258057
2023-03-04T13:17:13.458Z,57.745361
2023-03-04T13:18:22.151Z,58.154297
2023-03-04T13:19:31.815Z,56.573486
2023-03-04T13:20:41.496Z,55.328369
2023-03-04T13:21:49.241Z,55.963135
2023-03-04T13:22:58.223Z,57.672119
2023-03-04T13:24:07.718Z,58.746338
2023-03-04T13:25:16.423Z,59.460449
2023-03-04T13:26:25.084Z,57.745361
2023-03-04T13:27:35.937Z,57.293701
2023-03-04T13:28:44.449Z,59.490967
2023-03-04T13:29:54.385Z,59.765625
2023-03-04T13:31:01.854Z,59.332275
2023-03-04T13:32:11.573Z,58.587646
2023-03-04T13:33:21.196Z,57.873535
2023-03-04T13:34:29.883Z,57.617188
2023-03-04T13:35:39.624Z,56.878662
2023-03-04T13:36:48.246Z,56.878662
2023-03-04T13:37:56.929Z,57.287598
2023-03-04T13:39:07.613Z,56.695557
2023-03-04T13:40:15.300Z,54.968262
2023-03-04T13:41:21.938Z,55.505371
2023-03-04T13:42:31.620Z,55.938721
2023-03-04T13:43:40.323Z,56.164551
2023-03-04T13:44:49.044Z,58.105469
2023-03-04T13:45:57.784Z,59.515381
2023-03-04T13:47:06.462Z,60.943604
2023-03-04T13:48:16.157Z,60.687256
2023-03-04T13:49:24.842Z,59.356689
2023-03-04T13:50:32.513Z,59.564209
2023-03-04T13:51:43.197Z,58.795166
2023-03-04T13:52:52.909Z,58.38623
2023-03-04T13:54:02.633Z,58.850098
2023-03-04T13:55:12.306Z,59.429932
2023-03-04T13:56:20.967Z,59.283447